sensor_id;sensor_type;location;lat;lon;timestamp;P1;durP1;ratioP1;P2;durP2;ratioP2
16442;SDS011;8331;51.654;14.376;2023-08-01T00:01:42;3.67;;;3.17;;
16442;SDS011;8331;51.654;14.376;2023-08-01T00:04:09;5.77;;;3.10;;
16442;SDS011;8331;51.654;14.376;2023-08-01T00:06:35;5.43;;;3.20;;
16442;SDS011;8331;51.654;14.376;2023-08-01T00:09:02;3.77;;;3.00;;
16442;SDS011;8331;51.654;14.376;2023-08-01T00:11:29;4.67;;;3.30;;
16442;SDS011;8331;51.654;14.376;2023-08-01T00:13:55;5.20;;;3.23;;
16442;SDS011;8331;51.654;14.376;2023-08-01T00:16:22;5.70;;;3.73;;
16442;SDS011;8331;51.654;14.376;2023-08-01T00:18:52;3.87;;;3.33;;
16442;SDS011;8331;51.654;14.376;2023-08-01T00:21:18;4.20;;;3.80;;
16442;SDS011;8331;51.654;14.376;2023-08-01T00:23:45;4.70;;;3.33;;
16442;SDS011;8331;51.654;14.376;2023-08-01T00:26:11;3.57;;;3.27;;
16442;SDS011;8331;51.654;14.376;2023-08-01T00:28:38;4.27;;;3.53;;
16442;SDS011;8331;51.654;14.376;2023-08-01T00:31:05;3.60;;;3.23;;
16442;SDS011;8331;51.654;14.376;2023-08-01T00:33:32;4.23;;;3.83;;
16442;SDS011;8331;51.654;14.376;2023-08-01T00:35:59;3.73;;;3.40;;
16442;SDS011;8331;51.654;14.376;2023-08-01T00:38:26;4.27;;;3.33;;
16442;SDS011;8331;51.654;14.376;2023-08-01T00:40:53;4.33;;;3.73;;
16442;SDS011;8331;51.654;14.376;2023-08-01T00:43:19;3.80;;;3.50;;
16442;SDS011;8331;51.654;14.376;2023-08-01T00:45:46;4.20;;;3.80;;
16442;SDS011;8331;51.654;14.376;2023-08-01T00:48:13;4.10;;;3.80;;
16442;SDS011;8331;51.654;14.376;2023-08-01T00:50:40;3.73;;;3.43;;
16442;SDS011;8331;51.654;14.376;2023-08-01T00:53:06;5.73;;;4.30;;
16442;SDS011;8331;51.654;14.376;2023-08-01T00:55:33;3.83;;;3.50;;
16442;SDS011;8331;51.654;14.376;2023-08-01T00:58:00;4.40;;;3.47;;
16442;SDS011;8331;51.654;14.376;2023-08-01T01:00:27;7.03;;;3.60;;
16442;SDS011;8331;51.654;14.376;2023-08-01T01:02:54;5.57;;;3.60;;
16442;SDS011;8331;51.654;14.376;2023-08-01T01:05:21;4.37;;;4.07;;
16442;SDS011;8331;51.654;14.376;2023-08-01T01:07:49;4.40;;;4.00;;
16442;SDS011;8331;51.654;14.376;2023-08-01T01:10:16;5.07;;;4.03;;
16442;SDS011;8331;51.654;14.376;2023-08-01T01:12:43;4.67;;;3.93;;
16442;SDS011;8331;51.654;14.376;2023-08-01T01:15:09;5.43;;;3.90;;
16442;SDS011;8331;51.654;14.376;2023-08-01T01:17:36;4.23;;;3.83;;
16442;SDS011;8331;51.654;14.376;2023-08-01T01:20:03;5.60;;;4.00;;
16442;SDS011;8331;51.654;14.376;2023-08-01T01:22:30;4.17;;;3.83;;
16442;SDS011;8331;51.654;14.376;2023-08-01T01:24:57;6.40;;;4.47;;
16442;SDS011;8331;51.654;14.376;2023-08-01T01:27:25;5.27;;;3.50;;
16442;SDS011;8331;51.654;14.376;2023-08-01T01:29:52;4.20;;;3.80;;
16442;SDS011;8331;51.654;14.376;2023-08-01T01:32:19;4.60;;;4.20;;
16442;SDS011;8331;51.654;14.376;2023-08-01T01:34:46;4.70;;;4.30;;
16442;SDS011;8331;51.654;14.376;2023-08-01T01:37:13;4.37;;;3.97;;
16442;SDS011;8331;51.654;14.376;2023-08-01T01:39:40;6.23;;;4.40;;
16442;SDS011;8331;51.654;14.376;2023-08-01T01:42:07;5.13;;;4.57;;
16442;SDS011;8331;51.654;14.376;2023-08-01T01:44:33;4.87;;;4.40;;
16442;SDS011;8331;51.654;14.376;2023-08-01T01:47:00;5.33;;;4.57;;
16442;SDS011;8331;51.654;14.376;2023-08-01T01:49:27;5.67;;;5.07;;
16442;SDS011;8331;51.654;14.376;2023-08-01T01:51:56;5.57;;;4.67;;
16442;SDS011;8331;51.654;14.376;2023-08-01T01:54:24;5.40;;;4.90;;
16442;SDS011;8331;51.654;14.376;2023-08-01T01:56:51;5.83;;;4.33;;
16442;SDS011;8331;51.654;14.376;2023-08-01T01:59:17;7.10;;;4.80;;
16442;SDS011;8331;51.654;14.376;2023-08-01T02:01:44;5.03;;;4.53;;
16442;SDS011;8331;51.654;14.376;2023-08-01T02:04:10;5.07;;;4.63;;
16442;SDS011;8331;51.654;14.376;2023-08-01T02:06:37;4.90;;;4.47;;
16442;SDS011;8331;51.654;14.376;2023-08-01T02:09:05;7.40;;;4.80;;
16442;SDS011;8331;51.654;14.376;2023-08-01T02:11:31;5.57;;;5.00;;
16442;SDS011;8331;51.654;14.376;2023-08-01T02:13:58;5.07;;;4.57;;
16442;SDS011;8331;51.654;14.376;2023-08-01T02:16:25;5.67;;;4.53;;
16442;SDS011;8331;51.654;14.376;2023-08-01T02:18:52;4.90;;;4.40;;
16442;SDS011;8331;51.654;14.376;2023-08-01T02:21:18;5.03;;;4.53;;
16442;SDS011;8331;51.654;14.376;2023-08-01T02:23:45;7.87;;;4.73;;
16442;SDS011;8331;51.654;14.376;2023-08-01T02:26:12;5.27;;;4.50;;
16442;SDS011;8331;51.654;14.376;2023-08-01T02:28:38;5.50;;;5.00;;
16442;SDS011;8331;51.654;14.376;2023-08-01T02:31:05;7.90;;;4.80;;
16442;SDS011;8331;51.654;14.376;2023-08-01T02:33:32;5.57;;;5.00;;
16442;SDS011;8331;51.654;14.376;2023-08-01T02:36:00;5.67;;;4.87;;
16442;SDS011;8331;51.654;14.376;2023-08-01T02:38:26;6.47;;;4.43;;
16442;SDS011;8331;51.654;14.376;2023-08-01T02:40:53;10.27;;;4.70;;
16442;SDS011;8331;51.654;14.376;2023-08-01T02:43:20;7.43;;;4.80;;
16442;SDS011;8331;51.654;14.376;2023-08-01T02:45:46;7.03;;;4.63;;
16442;SDS011;8331;51.654;14.376;2023-08-01T02:48:13;4.73;;;4.33;;
16442;SDS011;8331;51.654;14.376;2023-08-01T02:50:40;6.83;;;4.40;;
16442;SDS011;8331;51.654;14.376;2023-08-01T02:53:07;5.30;;;4.43;;
16442;SDS011;8331;51.654;14.376;2023-08-01T02:55:34;5.30;;;4.80;;
16442;SDS011;8331;51.654;14.376;2023-08-01T02:58:00;4.60;;;4.20;;
16442;SDS011;8331;51.654;14.376;2023-08-01T03:00:27;6.33;;;5.03;;
16442;SDS011;8331;51.654;14.376;2023-08-01T03:02:53;7.10;;;4.97;;
16442;SDS011;8331;51.654;14.376;2023-08-01T03:05:20;6.20;;;5.53;;
16442;SDS011;8331;51.654;14.376;2023-08-01T03:07:47;5.57;;;5.03;;
16442;SDS011;8331;51.654;14.376;2023-08-01T03:10:14;5.27;;;4.70;;
16442;SDS011;8331;51.654;14.376;2023-08-01T03:12:59;5.43;;;4.73;;
16442;SDS011;8331;51.654;14.376;2023-08-01T03:15:27;5.37;;;4.87;;
16442;SDS011;8331;51.654;14.376;2023-08-01T03:17:54;5.40;;;4.90;;
16442;SDS011;8331;51.654;14.376;2023-08-01T03:20:20;9.40;;;4.70;;
16442;SDS011;8331;51.654;14.376;2023-08-01T03:22:49;5.70;;;5.10;;
16442;SDS011;8331;51.654;14.376;2023-08-01T03:25:15;5.33;;;4.57;;
16442;SDS011;8331;51.654;14.376;2023-08-01T03:27:42;6.57;;;5.00;;
16442;SDS011;8331;51.654;14.376;2023-08-01T03:30:09;5.60;;;5.10;;
16442;SDS011;8331;51.654;14.376;2023-08-01T03:32:35;5.50;;;4.40;;
16442;SDS011;8331;51.654;14.376;2023-08-01T03:35:04;5.37;;;4.70;;
16442;SDS011;8331;51.654;14.376;2023-08-01T03:37:31;5.33;;;4.87;;
16442;SDS011;8331;51.654;14.376;2023-08-01T03:39:58;6.53;;;4.93;;
16442;SDS011;8331;51.654;14.376;2023-08-01T03:42:25;5.20;;;4.70;;
16442;SDS011;8331;51.654;14.376;2023-08-01T03:44:51;7.37;;;5.20;;
16442;SDS011;8331;51.654;14.376;2023-08-01T03:47:18;5.53;;;5.03;;
16442;SDS011;8331;51.654;14.376;2023-08-01T03:49:44;4.83;;;4.43;;
16442;SDS011;8331;51.654;14.376;2023-08-01T03:52:13;5.60;;;5.10;;
16442;SDS011;8331;51.654;14.376;2023-08-01T03:54:40;5.70;;;4.37;;
16442;SDS011;8331;51.654;14.376;2023-08-01T03:57:07;5.53;;;5.03;;
16442;SDS011;8331;51.654;14.376;2023-08-01T03:59:34;4.67;;;4.30;;
16442;SDS011;8331;51.654;14.376;2023-08-01T04:02:03;5.10;;;4.70;;
16442;SDS011;8331;51.654;14.376;2023-08-01T04:04:30;5.97;;;5.10;;
16442;SDS011;8331;51.654;14.376;2023-08-01T04:06:57;5.97;;;5.37;;
16442;SDS011;8331;51.654;14.376;2023-08-01T04:09:24;7.93;;;5.13;;
16442;SDS011;8331;51.654;14.376;2023-08-01T04:11:51;5.40;;;4.90;;
16442;SDS011;8331;51.654;14.376;2023-08-01T04:14:17;5.00;;;4.60;;
16442;SDS011;8331;51.654;14.376;2023-08-01T04:16:44;6.10;;;4.73;;
16442;SDS011;8331;51.654;14.376;2023-08-01T04:19:11;5.27;;;4.77;;
16442;SDS011;8331;51.654;14.376;2023-08-01T04:21:37;4.60;;;4.20;;
16442;SDS011;8331;51.654;14.376;2023-08-01T04:24:04;5.37;;;4.87;;
16442;SDS011;8331;51.654;14.376;2023-08-01T04:26:30;5.10;;;4.23;;
16442;SDS011;8331;51.654;14.376;2023-08-01T04:28:57;6.07;;;4.17;;
16442;SDS011;8331;51.654;14.376;2023-08-01T04:31:24;4.53;;;4.10;;
16442;SDS011;8331;51.654;14.376;2023-08-01T04:33:50;4.70;;;4.20;;
16442;SDS011;8331;51.654;14.376;2023-08-01T04:36:17;4.17;;;3.87;;
16442;SDS011;8331;51.654;14.376;2023-08-01T04:38:43;5.87;;;4.70;;
16442;SDS011;8331;51.654;14.376;2023-08-01T04:41:10;5.27;;;4.77;;
16442;SDS011;8331;51.654;14.376;2023-08-01T04:43:36;4.80;;;4.40;;
16442;SDS011;8331;51.654;14.376;2023-08-01T04:46:03;4.80;;;4.40;;
16442;SDS011;8331;51.654;14.376;2023-08-01T04:48:30;6.43;;;5.07;;
16442;SDS011;8331;51.654;14.376;2023-08-01T04:50:56;5.33;;;4.40;;
16442;SDS011;8331;51.654;14.376;2023-08-01T04:53:23;5.27;;;4.37;;
16442;SDS011;8331;51.654;14.376;2023-08-01T04:55:50;4.40;;;4.10;;
16442;SDS011;8331;51.654;14.376;2023-08-01T04:58:17;5.00;;;4.60;;
16442;SDS011;8331;51.654;14.376;2023-08-01T05:00:43;6.13;;;4.93;;
16442;SDS011;8331;51.654;14.376;2023-08-01T05:03:10;5.23;;;4.73;;
16442;SDS011;8331;51.654;14.376;2023-08-01T05:05:37;4.83;;;4.47;;
16442;SDS011;8331;51.654;14.376;2023-08-01T05:08:03;6.57;;;4.87;;
16442;SDS011;8331;51.654;14.376;2023-08-01T05:10:30;4.70;;;4.20;;
16442;SDS011;8331;51.654;14.376;2023-08-01T05:12:57;5.27;;;4.80;;
16442;SDS011;8331;51.654;14.376;2023-08-01T05:15:23;5.57;;;5.07;;
16442;SDS011;8331;51.654;14.376;2023-08-01T05:17:52;4.77;;;4.33;;
16442;SDS011;8331;51.654;14.376;2023-08-01T05:20:18;4.87;;;4.37;;
16442;SDS011;8331;51.654;14.376;2023-08-01T05:22:45;5.03;;;4.63;;
16442;SDS011;8331;51.654;14.376;2023-08-01T05:25:11;5.07;;;4.57;;
16442;SDS011;8331;51.654;14.376;2023-08-01T05:27:38;5.90;;;4.77;;
16442;SDS011;8331;51.654;14.376;2023-08-01T05:30:05;5.37;;;4.97;;
16442;SDS011;8331;51.654;14.376;2023-08-01T05:32:32;5.63;;;5.13;;
16442;SDS011;8331;51.654;14.376;2023-08-01T05:34:58;5.40;;;4.90;;
16442;SDS011;8331;51.654;14.376;2023-08-01T05:37:25;5.30;;;4.80;;
16442;SDS011;8331;51.654;14.376;2023-08-01T05:39:51;5.10;;;4.70;;
16442;SDS011;8331;51.654;14.376;2023-08-01T05:42:18;6.40;;;5.07;;
16442;SDS011;8331;51.654;14.376;2023-08-01T05:44:45;6.27;;;5.00;;
16442;SDS011;8331;51.654;14.376;2023-08-01T05:47:11;6.00;;;5.37;;
16442;SDS011;8331;51.654;14.376;2023-08-01T05:49:38;5.90;;;5.30;;
16442;SDS011;8331;51.654;14.376;2023-08-01T05:52:04;6.83;;;5.00;;
16442;SDS011;8331;51.654;14.376;2023-08-01T05:54:31;7.63;;;5.67;;
16442;SDS011;8331;51.654;14.376;2023-08-01T05:56:58;6.77;;;6.07;;
16442;SDS011;8331;51.654;14.376;2023-08-01T05:59:24;6.30;;;5.27;;
16442;SDS011;8331;51.654;14.376;2023-08-01T06:01:51;6.00;;;5.43;;
16442;SDS011;8331;51.654;14.376;2023-08-01T06:04:18;5.23;;;4.83;;
16442;SDS011;8331;51.654;14.376;2023-08-01T06:06:44;6.97;;;5.30;;
16442;SDS011;8331;51.654;14.376;2023-08-01T06:09:11;6.10;;;5.50;;
16442;SDS011;8331;51.654;14.376;2023-08-01T06:11:38;6.73;;;6.03;;
16442;SDS011;8331;51.654;14.376;2023-08-01T06:14:04;5.77;;;5.27;;
16442;SDS011;8331;51.654;14.376;2023-08-01T06:16:31;7.67;;;5.67;;
16442;SDS011;8331;51.654;14.376;2023-08-01T06:18:58;5.80;;;5.40;;
16442;SDS011;8331;51.654;14.376;2023-08-01T06:21:25;6.80;;;5.63;;
16442;SDS011;8331;51.654;14.376;2023-08-01T06:23:51;6.70;;;6.10;;
16442;SDS011;8331;51.654;14.376;2023-08-01T06:26:18;6.17;;;5.67;;
16442;SDS011;8331;51.654;14.376;2023-08-01T06:28:45;8.70;;;6.10;;
16442;SDS011;8331;51.654;14.376;2023-08-01T06:31:11;5.90;;;5.50;;
16442;SDS011;8331;51.654;14.376;2023-08-01T06:33:38;6.60;;;6.10;;
16442;SDS011;8331;51.654;14.376;2023-08-01T06:36:05;6.30;;;5.80;;
16442;SDS011;8331;51.654;14.376;2023-08-01T06:38:32;6.50;;;6.00;;
16442;SDS011;8331;51.654;14.376;2023-08-01T06:40:58;6.30;;;5.80;;
16442;SDS011;8331;51.654;14.376;2023-08-01T06:43:25;7.20;;;6.60;;
16442;SDS011;8331;51.654;14.376;2023-08-01T06:45:52;6.70;;;6.20;;
16442;SDS011;8331;51.654;14.376;2023-08-01T06:48:18;6.50;;;6.00;;
16442;SDS011;8331;51.654;14.376;2023-08-01T06:50:45;6.50;;;5.97;;
16442;SDS011;8331;51.654;14.376;2023-08-01T06:53:12;6.40;;;5.90;;
16442;SDS011;8331;51.654;14.376;2023-08-01T06:55:38;7.07;;;6.30;;
16442;SDS011;8331;51.654;14.376;2023-08-01T06:58:05;7.23;;;5.97;;
16442;SDS011;8331;51.654;14.376;2023-08-01T07:00:32;6.23;;;5.73;;
16442;SDS011;8331;51.654;14.376;2023-08-01T07:02:59;6.80;;;6.30;;
16442;SDS011;8331;51.654;14.376;2023-08-01T07:05:25;6.47;;;5.97;;
16442;SDS011;8331;51.654;14.376;2023-08-01T07:07:52;7.17;;;6.47;;
16442;SDS011;8331;51.654;14.376;2023-08-01T07:10:19;7.83;;;7.17;;
16442;SDS011;8331;51.654;14.376;2023-08-01T07:12:46;7.07;;;6.33;;
16442;SDS011;8331;51.654;14.376;2023-08-01T07:15:13;7.37;;;6.77;;
16442;SDS011;8331;51.654;14.376;2023-08-01T07:17:40;7.23;;;6.60;;
16442;SDS011;8331;51.654;14.376;2023-08-01T07:20:06;7.23;;;6.73;;
16442;SDS011;8331;51.654;14.376;2023-08-01T07:22:33;6.50;;;6.00;;
16442;SDS011;8331;51.654;14.376;2023-08-01T07:25:00;8.57;;;6.57;;
16442;SDS011;8331;51.654;14.376;2023-08-01T07:27:26;6.63;;;6.03;;
16442;SDS011;8331;51.654;14.376;2023-08-01T07:29:53;6.57;;;6.07;;
16442;SDS011;8331;51.654;14.376;2023-08-01T07:32:20;7.57;;;6.30;;
16442;SDS011;8331;51.654;14.376;2023-08-01T07:34:46;6.20;;;5.70;;
16442;SDS011;8331;51.654;14.376;2023-08-01T07:37:13;6.33;;;5.83;;
16442;SDS011;8331;51.654;14.376;2023-08-01T07:39:40;5.43;;;5.03;;
16442;SDS011;8331;51.654;14.376;2023-08-01T07:42:06;6.10;;;5.53;;
16442;SDS011;8331;51.654;14.376;2023-08-01T07:44:33;5.70;;;5.30;;
16442;SDS011;8331;51.654;14.376;2023-08-01T07:46:59;5.43;;;5.10;;
16442;SDS011;8331;51.654;14.376;2023-08-01T07:49:26;5.60;;;5.07;;
16442;SDS011;8331;51.654;14.376;2023-08-01T07:51:53;5.40;;;5.10;;
16442;SDS011;8331;51.654;14.376;2023-08-01T07:54:19;6.00;;;5.50;;
16442;SDS011;8331;51.654;14.376;2023-08-01T07:56:46;7.13;;;5.50;;
16442;SDS011;8331;51.654;14.376;2023-08-01T07:59:15;5.30;;;5.00;;
16442;SDS011;8331;51.654;14.376;2023-08-01T08:01:42;5.70;;;5.30;;
16442;SDS011;8331;51.654;14.376;2023-08-01T08:04:08;5.23;;;4.83;;
16442;SDS011;8331;51.654;14.376;2023-08-01T08:06:36;5.10;;;4.80;;
16442;SDS011;8331;51.654;14.376;2023-08-01T08:09:03;5.23;;;4.90;;
16442;SDS011;8331;51.654;14.376;2023-08-01T08:11:30;5.40;;;4.90;;
16442;SDS011;8331;51.654;14.376;2023-08-01T08:13:56;4.97;;;4.43;;
16442;SDS011;8331;51.654;14.376;2023-08-01T08:16:23;4.00;;;3.80;;
16442;SDS011;8331;51.654;14.376;2023-08-01T08:18:50;4.97;;;4.57;;
16442;SDS011;8331;51.654;14.376;2023-08-01T08:21:16;4.60;;;4.30;;
16442;SDS011;8331;51.654;14.376;2023-08-01T08:23:43;4.70;;;4.30;;
16442;SDS011;8331;51.654;14.376;2023-08-01T08:26:09;4.33;;;4.03;;
16442;SDS011;8331;51.654;14.376;2023-08-01T08:28:36;4.23;;;3.93;;
16442;SDS011;8331;51.654;14.376;2023-08-01T08:31:03;4.30;;;4.00;;
16442;SDS011;8331;51.654;14.376;2023-08-01T08:33:30;4.43;;;4.03;;
16442;SDS011;8331;51.654;14.376;2023-08-01T08:35:57;4.20;;;3.90;;
16442;SDS011;8331;51.654;14.376;2023-08-01T08:38:24;4.77;;;3.67;;
16442;SDS011;8331;51.654;14.376;2023-08-01T08:43:23;4.00;;;3.70;;
16442;SDS011;8331;51.654;14.376;2023-08-01T08:45:51;3.73;;;3.43;;
16442;SDS011;8331;51.654;14.376;2023-08-01T08:48:19;3.77;;;3.40;;
16442;SDS011;8331;51.654;14.376;2023-08-01T08:50:46;2.63;;;2.43;;
16442;SDS011;8331;51.654;14.376;2023-08-01T08:53:13;3.20;;;3.00;;
16442;SDS011;8331;51.654;14.376;2023-08-01T08:55:40;2.50;;;2.40;;
16442;SDS011;8331;51.654;14.376;2023-08-01T08:58:07;2.13;;;2.03;;
16442;SDS011;8331;51.654;14.376;2023-08-01T09:00:37;2.27;;;2.07;;
16442;SDS011;8331;51.654;14.376;2023-08-01T09:03:04;2.53;;;2.10;;
16442;SDS011;8331;51.654;14.376;2023-08-01T09:05:34;1.90;;;1.80;;
16442;SDS011;8331;51.654;14.376;2023-08-01T09:08:01;1.93;;;1.83;;
16442;SDS011;8331;51.654;14.376;2023-08-01T09:10:31;1.60;;;1.53;;
16442;SDS011;8331;51.654;14.376;2023-08-01T09:12:58;1.67;;;1.57;;
16442;SDS011;8331;51.654;14.376;2023-08-01T09:15:25;1.73;;;1.63;;
16442;SDS011;8331;51.654;14.376;2023-08-01T09:17:54;1.73;;;1.63;;
16442;SDS011;8331;51.654;14.376;2023-08-01T09:20:27;2.07;;;1.90;;
16442;SDS011;8331;51.654;14.376;2023-08-01T09:22:54;1.90;;;1.80;;
16442;SDS011;8331;51.654;14.376;2023-08-01T09:25:30;2.03;;;1.90;;
16442;SDS011;8331;51.654;14.376;2023-08-01T09:27:56;2.30;;;1.60;;
16442;SDS011;8331;51.654;14.376;2023-08-01T09:30:23;1.80;;;1.70;;
16442;SDS011;8331;51.654;14.376;2023-08-01T09:32:53;1.60;;;1.50;;
16442;SDS011;8331;51.654;14.376;2023-08-01T09:35:20;1.83;;;1.73;;
16442;SDS011;8331;51.654;14.376;2023-08-01T09:37:48;13.27;;;2.57;;
16442;SDS011;8331;51.654;14.376;2023-08-01T09:40:14;1.77;;;1.67;;
16442;SDS011;8331;51.654;14.376;2023-08-01T09:42:43;2.13;;;1.93;;
16442;SDS011;8331;51.654;14.376;2023-08-01T09:45:16;1.73;;;1.50;;
16442;SDS011;8331;51.654;14.376;2023-08-01T09:47:43;4.10;;;2.03;;
16442;SDS011;8331;51.654;14.376;2023-08-01T09:50:19;2.00;;;1.80;;
16442;SDS011;8331;51.654;14.376;2023-08-01T09:52:46;1.90;;;1.80;;
16442;SDS011;8331;51.654;14.376;2023-08-01T09:57:53;2.77;;;1.50;;
16442;SDS011;8331;51.654;14.376;2023-08-01T10:00:19;4.37;;;1.97;;
16442;SDS011;8331;51.654;14.376;2023-08-01T10:02:46;1.70;;;1.60;;
16442;SDS011;8331;51.654;14.376;2023-08-01T10:05:13;2.00;;;1.73;;
16442;SDS011;8331;51.654;14.376;2023-08-01T10:07:41;1.43;;;1.30;;
16442;SDS011;8331;51.654;14.376;2023-08-01T10:10:08;1.53;;;1.43;;
16442;SDS011;8331;51.654;14.376;2023-08-01T10:12:36;2.43;;;1.60;;
16442;SDS011;8331;51.654;14.376;2023-08-01T10:15:03;2.13;;;1.60;;
16442;SDS011;8331;51.654;14.376;2023-08-01T10:17:30;1.70;;;1.60;;
16442;SDS011;8331;51.654;14.376;2023-08-01T10:19:57;1.80;;;1.70;;
16442;SDS011;8331;51.654;14.376;2023-08-01T10:22:25;2.40;;;1.50;;
16442;SDS011;8331;51.654;14.376;2023-08-01T10:24:52;1.80;;;1.47;;
16442;SDS011;8331;51.654;14.376;2023-08-01T10:27:20;1.50;;;1.40;;
16442;SDS011;8331;51.654;14.376;2023-08-01T10:29:59;1.97;;;1.30;;
16442;SDS011;8331;51.654;14.376;2023-08-01T10:32:33;2.03;;;1.53;;
16442;SDS011;8331;51.654;14.376;2023-08-01T10:35:00;1.47;;;1.37;;
16442;SDS011;8331;51.654;14.376;2023-08-01T10:37:27;1.30;;;1.20;;
16442;SDS011;8331;51.654;14.376;2023-08-01T10:40:05;0.93;;;0.93;;
16442;SDS011;8331;51.654;14.376;2023-08-01T10:42:42;2.13;;;1.00;;
16442;SDS011;8331;51.654;14.376;2023-08-01T10:45:22;0.80;;;0.80;;
16442;SDS011;8331;51.654;14.376;2023-08-01T10:47:51;1.13;;;1.03;;
16442;SDS011;8331;51.654;14.376;2023-08-01T10:50:18;0.93;;;0.93;;
16442;SDS011;8331;51.654;14.376;2023-08-01T10:52:45;0.83;;;0.83;;
16442;SDS011;8331;51.654;14.376;2023-08-01T10:55:12;1.10;;;1.00;;
16442;SDS011;8331;51.654;14.376;2023-08-01T10:57:40;0.93;;;0.93;;
16442;SDS011;8331;51.654;14.376;2023-08-01T11:00:15;1.80;;;0.80;;
16442;SDS011;8331;51.654;14.376;2023-08-01T11:02:42;1.70;;;0.90;;
16442;SDS011;8331;51.654;14.376;2023-08-01T11:05:09;0.63;;;0.63;;
16442;SDS011;8331;51.654;14.376;2023-08-01T11:07:35;0.77;;;0.60;;
16442;SDS011;8331;51.654;14.376;2023-08-01T11:10:06;1.70;;;0.80;;
16442;SDS011;8331;51.654;14.376;2023-08-01T11:12:35;0.53;;;0.53;;
16442;SDS011;8331;51.654;14.376;2023-08-01T11:15:02;0.53;;;0.53;;
16442;SDS011;8331;51.654;14.376;2023-08-01T11:17:29;0.67;;;0.67;;
16442;SDS011;8331;51.654;14.376;2023-08-01T11:20:12;3.90;;;0.90;;
16442;SDS011;8331;51.654;14.376;2023-08-01T11:23:00;1.90;;;0.93;;
16442;SDS011;8331;51.654;14.376;2023-08-01T11:25:35;0.50;;;0.50;;
16442;SDS011;8331;51.654;14.376;2023-08-01T11:30:32;0.60;;;0.60;;
16442;SDS011;8331;51.654;14.376;2023-08-01T11:32:59;0.80;;;0.80;;
16442;SDS011;8331;51.654;14.376;2023-08-01T11:35:26;0.93;;;0.70;;
16442;SDS011;8331;51.654;14.376;2023-08-01T11:37:53;0.87;;;0.73;;
16442;SDS011;8331;51.654;14.376;2023-08-01T11:40:19;0.87;;;0.87;;
16442;SDS011;8331;51.654;14.376;2023-08-01T11:42:49;0.60;;;0.60;;
16442;SDS011;8331;51.654;14.376;2023-08-01T11:45:19;0.80;;;0.80;;
16442;SDS011;8331;51.654;14.376;2023-08-01T11:47:47;2.10;;;0.73;;
16442;SDS011;8331;51.654;14.376;2023-08-01T11:50:14;0.90;;;0.90;;
16442;SDS011;8331;51.654;14.376;2023-08-01T11:52:45;0.80;;;0.73;;
16442;SDS011;8331;51.654;14.376;2023-08-01T11:55:18;1.30;;;0.97;;
16442;SDS011;8331;51.654;14.376;2023-08-01T11:57:51;2.03;;;0.87;;
16442;SDS011;8331;51.654;14.376;2023-08-01T12:00:21;0.70;;;0.70;;
16442;SDS011;8331;51.654;14.376;2023-08-01T12:02:48;0.90;;;0.73;;
16442;SDS011;8331;51.654;14.376;2023-08-01T12:05:20;1.07;;;0.77;;
16442;SDS011;8331;51.654;14.376;2023-08-01T12:07:47;1.93;;;0.70;;
16442;SDS011;8331;51.654;14.376;2023-08-01T12:10:14;1.00;;;0.90;;
16442;SDS011;8331;51.654;14.376;2023-08-01T12:12:45;0.80;;;0.80;;
16442;SDS011;8331;51.654;14.376;2023-08-01T12:15:13;0.90;;;0.90;;
16442;SDS011;8331;51.654;14.376;2023-08-01T12:17:39;0.63;;;0.63;;
16442;SDS011;8331;51.654;14.376;2023-08-01T12:20:06;0.67;;;0.67;;
16442;SDS011;8331;51.654;14.376;2023-08-01T12:22:33;0.90;;;0.90;;
16442;SDS011;8331;51.654;14.376;2023-08-01T12:25:00;0.70;;;0.70;;
16442;SDS011;8331;51.654;14.376;2023-08-01T12:27:27;2.07;;;0.70;;
16442;SDS011;8331;51.654;14.376;2023-08-01T12:29:53;0.90;;;0.90;;
16442;SDS011;8331;51.654;14.376;2023-08-01T12:32:20;0.60;;;0.60;;
16442;SDS011;8331;51.654;14.376;2023-08-01T12:34:47;0.70;;;0.70;;
16442;SDS011;8331;51.654;14.376;2023-08-01T12:37:14;4.23;;;0.77;;
16442;SDS011;8331;51.654;14.376;2023-08-01T12:39:40;1.20;;;0.57;;
16442;SDS011;8331;51.654;14.376;2023-08-01T12:42:07;0.80;;;0.80;;
16442;SDS011;8331;51.654;14.376;2023-08-01T12:44:34;1.13;;;0.80;;
16442;SDS011;8331;51.654;14.376;2023-08-01T12:47:00;3.13;;;0.60;;
16442;SDS011;8331;51.654;14.376;2023-08-01T12:49:27;0.60;;;0.60;;
16442;SDS011;8331;51.654;14.376;2023-08-01T12:51:54;0.60;;;0.60;;
16442;SDS011;8331;51.654;14.376;2023-08-01T12:54:21;0.50;;;0.50;;
16442;SDS011;8331;51.654;14.376;2023-08-01T12:56:47;0.87;;;0.60;;
16442;SDS011;8331;51.654;14.376;2023-08-01T12:59:14;0.50;;;0.50;;
16442;SDS011;8331;51.654;14.376;2023-08-01T13:01:41;0.40;;;0.37;;
16442;SDS011;8331;51.654;14.376;2023-08-01T13:04:07;0.50;;;0.50;;
16442;SDS011;8331;51.654;14.376;2023-08-01T13:06:34;3.03;;;0.60;;
16442;SDS011;8331;51.654;14.376;2023-08-01T13:09:00;2.13;;;0.70;;
16442;SDS011;8331;51.654;14.376;2023-08-01T13:11:27;0.70;;;0.70;;
16442;SDS011;8331;51.654;14.376;2023-08-01T13:13:55;0.50;;;0.50;;
16442;SDS011;8331;51.654;14.376;2023-08-01T13:16:21;0.77;;;0.63;;
16442;SDS011;8331;51.654;14.376;2023-08-01T13:18:48;0.50;;;0.50;;
16442;SDS011;8331;51.654;14.376;2023-08-01T13:21:15;0.60;;;0.60;;
16442;SDS011;8331;51.654;14.376;2023-08-01T13:23:41;3.50;;;0.80;;
16442;SDS011;8331;51.654;14.376;2023-08-01T13:26:08;0.80;;;0.80;;
16442;SDS011;8331;51.654;14.376;2023-08-01T13:28:35;2.37;;;0.70;;
16442;SDS011;8331;51.654;14.376;2023-08-01T13:31:01;1.27;;;0.70;;
16442;SDS011;8331;51.654;14.376;2023-08-01T13:33:28;0.80;;;0.80;;
16442;SDS011;8331;51.654;14.376;2023-08-01T13:35:55;0.77;;;0.77;;
16442;SDS011;8331;51.654;14.376;2023-08-01T13:38:24;1.10;;;1.00;;
16442;SDS011;8331;51.654;14.376;2023-08-01T13:40:50;0.97;;;0.90;;
16442;SDS011;8331;51.654;14.376;2023-08-01T13:43:17;1.93;;;0.90;;
16442;SDS011;8331;51.654;14.376;2023-08-01T13:45:44;0.77;;;0.77;;
16442;SDS011;8331;51.654;14.376;2023-08-01T13:48:10;0.70;;;0.70;;
16442;SDS011;8331;51.654;14.376;2023-08-01T13:50:37;0.80;;;0.80;;
16442;SDS011;8331;51.654;14.376;2023-08-01T13:53:04;1.20;;;0.90;;
16442;SDS011;8331;51.654;14.376;2023-08-01T13:55:34;0.90;;;0.90;;
16442;SDS011;8331;51.654;14.376;2023-08-01T13:58:00;1.27;;;1.00;;
16442;SDS011;8331;51.654;14.376;2023-08-01T14:00:27;1.07;;;1.03;;
16442;SDS011;8331;51.654;14.376;2023-08-01T14:02:54;0.83;;;0.83;;
16442;SDS011;8331;51.654;14.376;2023-08-01T14:05:20;2.00;;;0.90;;
16442;SDS011;8331;51.654;14.376;2023-08-01T14:07:47;0.97;;;0.90;;
16442;SDS011;8331;51.654;14.376;2023-08-01T14:10:14;1.00;;;0.90;;
16442;SDS011;8331;51.654;14.376;2023-08-01T14:12:41;0.83;;;0.73;;
16442;SDS011;8331;51.654;14.376;2023-08-01T14:15:08;1.80;;;0.80;;
16442;SDS011;8331;51.654;14.376;2023-08-01T14:17:36;0.90;;;0.90;;
16442;SDS011;8331;51.654;14.376;2023-08-01T14:20:02;1.30;;;0.90;;
16442;SDS011;8331;51.654;14.376;2023-08-01T14:22:32;0.90;;;0.90;;
16442;SDS011;8331;51.654;14.376;2023-08-01T14:24:59;1.20;;;0.93;;
16442;SDS011;8331;51.654;14.376;2023-08-01T14:27:25;2.30;;;1.60;;
16442;SDS011;8331;51.654;14.376;2023-08-01T14:29:52;1.30;;;1.20;;
16442;SDS011;8331;51.654;14.376;2023-08-01T14:32:19;0.80;;;0.80;;
16442;SDS011;8331;51.654;14.376;2023-08-01T14:34:46;1.20;;;1.10;;
16442;SDS011;8331;51.654;14.376;2023-08-01T14:37:13;1.20;;;1.20;;
16442;SDS011;8331;51.654;14.376;2023-08-01T14:39:39;1.20;;;1.10;;
16442;SDS011;8331;51.654;14.376;2023-08-01T14:42:06;1.40;;;1.30;;
16442;SDS011;8331;51.654;14.376;2023-08-01T14:44:32;1.00;;;1.00;;
16442;SDS011;8331;51.654;14.376;2023-08-01T14:46:59;1.07;;;1.07;;
16442;SDS011;8331;51.654;14.376;2023-08-01T14:49:26;1.27;;;1.23;;
16442;SDS011;8331;51.654;14.376;2023-08-01T14:51:55;1.10;;;1.10;;
16442;SDS011;8331;51.654;14.376;2023-08-01T14:54:22;1.13;;;1.13;;
16442;SDS011;8331;51.654;14.376;2023-08-01T14:57:05;1.20;;;1.17;;